createdAt,value
2018-05-24T00:00:09.421Z,0
2018-05-24T00:01:09.670Z,0
2018-05-24T00:02:09.401Z,0
2018-05-24T00:03:09.947Z,0
2018-05-24T00:04:09.932Z,0
2018-05-24T00:05:09.912Z,0
2018-05-24T00:06:09.376Z,0
2018-05-24T00:07:09.923Z,0
2018-05-24T00:08:09.883Z,0
2018-05-24T00:09:09.892Z,0
2018-05-24T00:10:09.608Z,0
2018-05-24T00:11:09.456Z,0
2018-05-24T00:12:09.853Z,0
2018-05-24T00:13:09.889Z,0
2018-05-24T00:14:09.602Z,0
2018-05-24T00:15:09.368Z,0
2018-05-24T00:16:09.826Z,0
2018-05-24T00:17:09.600Z,0
2018-05-24T00:18:09.874Z,0
2018-05-24T00:19:09.605Z,0
2018-05-24T00:20:09.611Z,0
2018-05-24T00:21:09.574Z,0
2018-05-24T00:22:09.557Z,0
2018-05-24T00:23:09.813Z,0
2018-05-24T00:24:09.836Z,0
2018-05-24T00:25:09.551Z,0
2018-05-24T00:26:09.314Z,0
2018-05-24T00:27:09.538Z,0
2018-05-24T00:28:09.848Z,0
2018-05-24T00:29:09.795Z,0
2018-05-24T00:30:09.816Z,0
2018-05-24T00:31:09.791Z,0
2018-05-24T00:32:09.549Z,0
2018-05-24T00:33:09.264Z,0
2018-05-24T00:34:09.505Z,0
2018-05-24T00:35:09.531Z,0
2018-05-24T00:36:09.792Z,0
2018-05-24T00:37:09.510Z,0
2018-05-24T00:38:09.752Z,0
2018-05-24T00:39:09.934Z,0
2018-05-24T00:40:09.934Z,0
2018-05-24T00:41:09.736Z,0
2018-05-24T00:42:09.245Z,0
2018-05-24T00:43:09.712Z,0
2018-05-24T00:44:09.491Z,0
2018-05-24T00:45:09.199Z,0
2018-05-24T00:46:09.221Z,0
2018-05-24T00:47:09.686Z,0
2018-05-24T00:48:09.731Z,0
2018-05-24T00:49:09.450Z,0
2018-05-24T00:50:09.463Z,0
2018-05-24T00:51:09.421Z,0
2018-05-24T00:52:09.661Z,0
2018-05-24T00:53:09.684Z,0
2018-05-24T00:54:09.441Z,0
2018-05-24T00:55:09.435Z,0
2018-05-24T00:56:09.144Z,0
2018-05-24T00:57:09.415Z,0
2018-05-24T00:58:09.680Z,0
2018-05-24T00:59:09.375Z,0
2018-05-24T01:00:09.413Z,0
2018-05-24T01:01:09.115Z,0
2018-05-24T01:02:09.655Z,0
2018-05-24T01:03:09.618Z,0
2018-05-24T01:04:09.405Z,0
2018-05-24T01:05:09.128Z,0
2018-05-24T01:06:09.375Z,0
2018-05-24T01:07:09.340Z,0
2018-05-24T01:08:09.356Z,0
2018-05-24T01:09:09.357Z,0
2018-05-24T01:10:09.619Z,0
2018-05-24T01:11:09.329Z,0
2018-05-24T01:12:09.360Z,0
2018-05-24T01:13:09.583Z,0
2018-05-24T01:14:09.347Z,0
2018-05-24T01:15:09.557Z,0
2018-05-24T01:16:09.329Z,0
2018-05-24T01:17:09.290Z,0
2018-05-24T01:18:09.571Z,0
2018-05-24T01:19:09.281Z,0
2018-05-24T01:20:09.319Z,0
2018-05-24T01:21:09.040Z,0
2018-05-24T01:22:09.550Z,0
2018-05-24T01:23:09.007Z,0
2018-05-24T01:24:09.296Z,0
2018-05-24T01:25:09.013Z,0
2018-05-24T01:26:09.269Z,0
2018-05-24T01:27:09.234Z,0
2018-05-24T01:28:09.270Z,0
2018-05-24T01:29:09.242Z,0
2018-05-24T01:30:09.013Z,0
2018-05-24T01:31:08.961Z,0
2018-05-24T01:32:09.518Z,0
2018-05-24T01:33:09.206Z,0
2018-05-24T01:34:09.492Z,0
2018-05-24T01:35:09.197Z,0
2018-05-24T01:36:08.983Z,0
2018-05-24T01:37:09.212Z,0
2018-05-24T01:38:08.963Z,0
2018-05-24T01:39:09.432Z,0
2018-05-24T01:40:09.172Z,0
2018-05-24T01:41:09.447Z,0
2018-05-24T01:42:09.190Z,0
2018-05-24T01:43:09.197Z,0
2018-05-24T01:44:09.154Z,0
2018-05-24T01:45:09.166Z,0
2018-05-24T01:46:09.400Z,0
2018-05-24T01:47:09.189Z,0
2018-05-24T01:48:09.129Z,0
2018-05-24T01:49:09.166Z,0
2018-05-24T01:50:09.421Z,0
2018-05-24T01:51:09.371Z,0
2018-05-24T01:52:09.411Z,0
2018-05-24T01:53:09.393Z,0
2018-05-24T01:54:09.654Z,0
2018-05-24T01:55:09.098Z,0
2018-05-24T01:56:09.344Z,0
2018-05-24T01:57:08.849Z,0
2018-05-24T01:58:09.371Z,0
2018-05-24T01:59:09.372Z,0
2018-05-24T02:00:09.076Z,0
2018-05-24T02:01:09.088Z,0
2018-05-24T02:02:09.302Z,0
2018-05-24T02:03:09.347Z,0
2018-05-24T02:04:09.051Z,0
2018-05-24T02:05:09.082Z,0
2018-05-24T02:06:09.043Z,0
2018-05-24T02:07:08.810Z,0
2018-05-24T02:08:08.525Z,4
2018-05-24T02:09:09.030Z,4
2018-05-24T02:10:09.281Z,0
2018-05-24T02:11:09.053Z,0
2018-05-24T02:12:09.292Z,4
2018-05-24T02:13:09.008Z,4
2018-05-24T02:14:08.991Z,4
2018-05-24T02:15:09.026Z,4
2018-05-24T02:16:09.238Z,4
2018-05-24T02:17:09.256Z,4
2018-05-24T02:18:08.958Z,4
2018-05-24T02:19:09.003Z,4
2018-05-24T02:20:09.207Z,8
2018-05-24T02:21:08.990Z,8
2018-05-24T02:22:09.217Z,8
2018-05-24T02:23:08.977Z,8
2018-05-24T02:24:08.673Z,12
2018-05-24T02:25:09.222Z,12
2018-05-24T02:26:08.921Z,12
2018-05-24T02:27:08.958Z,16
2018-05-24T02:28:08.954Z,16
2018-05-24T02:29:09.643Z,20
2018-05-24T02:30:08.915Z,20
2018-05-24T02:31:08.937Z,24
2018-05-24T02:32:08.663Z,28
2018-05-24T02:33:08.645Z,32
2018-05-24T02:34:08.669Z,32
2018-05-24T02:35:09.141Z,40
2018-05-24T02:36:10.361Z,48
2018-05-24T02:37:08.607Z,52
2018-05-24T02:38:09.156Z,56
2018-05-24T02:39:09.117Z,64
2018-05-24T02:40:09.183Z,76
2018-05-24T02:41:08.599Z,80
2018-05-24T02:42:08.855Z,92
2018-05-24T02:43:08.612Z,100
2018-05-24T02:44:08.604Z,112
2018-05-24T02:45:08.825Z,128
2018-05-24T02:46:08.318Z,140
2018-05-24T02:47:08.817Z,156
2018-05-24T02:48:08.836Z,172
2018-05-24T02:49:09.061Z,184
2018-05-24T02:50:09.097Z,208
2018-05-24T02:51:09.032Z,224
2018-05-24T02:52:08.812Z,244
2018-05-24T02:53:09.054Z,268
2018-05-24T02:54:08.525Z,288
2018-05-24T02:55:08.547Z,316
2018-05-24T02:56:08.758Z,344
2018-05-24T02:57:09.267Z,376
2018-05-24T02:58:09.004Z,408
2018-05-24T02:59:09.028Z,444
2018-05-24T03:00:09.031Z,484
2018-05-24T03:01:08.487Z,524
2018-05-24T03:02:08.734Z,568
2018-05-24T03:03:08.720Z,612
2018-05-24T03:04:09.028Z,664
2018-05-24T03:05:08.472Z,716
2018-05-24T03:06:08.997Z,776
2018-05-24T03:07:08.208Z,836
2018-05-24T03:08:08.935Z,904
2018-05-24T03:09:08.973Z,976
2018-05-24T03:10:08.700Z,1056
2018-05-24T03:11:08.965Z,1140
2018-05-24T03:12:08.400Z,1228
2018-05-24T03:13:08.670Z,1320
2018-05-24T03:14:08.651Z,1416
2018-05-24T03:15:08.693Z,1516
2018-05-24T03:16:08.671Z,1616
2018-05-24T03:17:08.905Z,1716
2018-05-24T03:18:08.119Z,1820
2018-05-24T03:19:08.610Z,1936
2018-05-24T03:20:08.653Z,2056
2018-05-24T03:21:08.359Z,2184
2018-05-24T03:22:08.897Z,2324
2018-05-24T03:23:08.332Z,2460
2018-05-24T03:24:08.885Z,2592
2018-05-24T03:25:08.579Z,2716
2018-05-24T03:26:08.351Z,2836
2018-05-24T03:27:08.563Z,2952
2018-05-24T03:28:08.596Z,3076
2018-05-24T03:29:08.837Z,3200
2018-05-24T03:30:08.601Z,3320
2018-05-24T03:31:08.811Z,3444
2018-05-24T03:32:08.581Z,3548
2018-05-24T03:33:08.651Z,3612
2018-05-24T03:34:08.550Z,3896
2018-05-24T03:35:08.523Z,4196
2018-05-24T03:36:08.554Z,4520
2018-05-24T03:37:08.537Z,4888
2018-05-24T03:38:08.549Z,5220
2018-05-24T03:39:08.251Z,5516
2018-05-24T03:40:08.794Z,5740
2018-05-24T03:41:08.494Z,5920
2018-05-24T03:42:08.515Z,6112
2018-05-24T03:43:08.738Z,6328
2018-05-24T03:44:08.777Z,6508
2018-05-24T03:45:08.498Z,6588
2018-05-24T03:46:08.243Z,6528
2018-05-24T03:47:08.459Z,6484
2018-05-24T03:48:08.721Z,6592
2018-05-24T03:49:08.747Z,6748
2018-05-24T03:50:08.485Z,6912
2018-05-24T03:51:08.236Z,6988
2018-05-24T03:52:09.011Z,7024
2018-05-24T03:53:08.466Z,7224
2018-05-24T03:54:08.189Z,7476
2018-05-24T03:55:08.756Z,7844
2018-05-24T03:56:08.698Z,8192
2018-05-24T03:57:08.490Z,8552
2018-05-24T03:58:08.719Z,8752
2018-05-24T03:59:08.928Z,8952
2018-05-24T04:00:08.216Z,9372
2018-05-24T04:01:08.441Z,9600
2018-05-24T04:02:08.191Z,9544
2018-05-24T04:03:08.413Z,9236
2018-05-24T04:04:08.674Z,9472
2018-05-24T04:05:08.704Z,9728
2018-05-24T04:06:08.440Z,9720
2018-05-24T04:07:08.282Z,9572
2018-05-24T04:08:08.152Z,9316
2018-05-24T04:09:08.165Z,9624
2018-05-24T04:10:08.146Z,9896
2018-05-24T04:11:08.442Z,10200
2018-05-24T04:12:08.899Z,10584
2018-05-24T04:13:08.699Z,10272
2018-05-24T04:14:08.410Z,10300
2018-05-24T04:15:08.700Z,9660
2018-05-24T04:16:08.395Z,8504
2018-05-24T04:17:08.150Z,6860
2018-05-24T04:18:08.404Z,7324
2018-05-24T04:19:08.433Z,7828
2018-05-24T04:20:08.426Z,8060
2018-05-24T04:21:08.424Z,7804
2018-05-24T04:22:08.655Z,8000
2018-05-24T04:23:08.485Z,8280
2018-05-24T04:24:08.640Z,8472
2018-05-24T04:25:08.671Z,8212
2018-05-24T04:26:07.875Z,7868
2018-05-24T04:27:09.007Z,7820
2018-05-24T04:28:08.636Z,8052
2018-05-24T04:29:07.907Z,8160
2018-05-24T04:30:08.900Z,8340
2018-05-24T04:31:08.174Z,8352
2018-05-24T04:32:08.628Z,8236
2018-05-24T04:33:08.708Z,8300
2018-05-24T04:34:08.646Z,8404
2018-05-24T04:35:08.416Z,8744
2018-05-24T04:36:08.208Z,9156
2018-05-24T04:37:08.647Z,9188
2018-05-24T04:38:08.383Z,9040
2018-05-24T04:39:08.376Z,9096
2018-05-24T04:40:08.413Z,9344
2018-05-24T04:41:08.404Z,9328
2018-05-24T04:42:08.406Z,9420
2018-05-24T04:43:08.109Z,10120
2018-05-24T04:44:08.659Z,11040
2018-05-24T04:45:08.629Z,10988
2018-05-24T04:46:08.132Z,11188
2018-05-24T04:47:08.619Z,11296
2018-05-24T04:48:08.665Z,10716
2018-05-24T04:49:08.111Z,10100
2018-05-24T04:50:08.625Z,10072
2018-05-24T04:51:08.387Z,10540
2018-05-24T04:52:08.749Z,10732
2018-05-24T04:53:08.121Z,11416
2018-05-24T04:54:08.356Z,10928
2018-05-24T04:55:08.344Z,11216
2018-05-24T04:56:08.114Z,12436
2018-05-24T04:57:08.098Z,14368
2018-05-24T04:58:08.374Z,12200
2018-05-24T04:59:08.084Z,11776
2018-05-24T05:00:08.108Z,12224
2018-05-24T05:01:08.574Z,13212
2018-05-24T05:02:08.367Z,16704
2018-05-24T05:03:08.082Z,15520
2018-05-24T05:04:07.848Z,13800
2018-05-24T05:05:08.626Z,13608
2018-05-24T05:06:08.349Z,15488
2018-05-24T05:07:08.316Z,17120
2018-05-24T05:08:08.573Z,19360
2018-05-24T05:09:08.336Z,21792
2018-05-24T05:10:08.600Z,20800
2018-05-24T05:11:08.358Z,18784
2018-05-24T05:12:08.316Z,17344
2018-05-24T05:13:08.589Z,19264
2018-05-24T05:14:08.142Z,23200
2018-05-24T05:15:08.304Z,22592
2018-05-24T05:16:08.354Z,19008
2018-05-24T05:17:08.306Z,18720
2018-05-24T05:18:07.827Z,16416
2018-05-24T05:19:08.563Z,16608
2018-05-24T05:20:08.348Z,21088
2018-05-24T05:21:08.333Z,24864
2018-05-24T05:22:08.090Z,26880
2018-05-24T05:23:08.421Z,27072
2018-05-24T05:24:08.317Z,28032
2018-05-24T05:25:08.424Z,28192
2018-05-24T05:26:08.341Z,22944
2018-05-24T05:27:08.362Z,23456
2018-05-24T05:28:08.572Z,29536
2018-05-24T05:29:08.333Z,32320
2018-05-24T05:30:08.316Z,32448
2018-05-24T05:31:08.365Z,34304
2018-05-24T05:32:08.392Z,34848
2018-05-24T05:33:08.620Z,29344
2018-05-24T05:34:08.597Z,26080
2018-05-24T05:35:08.124Z,22688
2018-05-24T05:36:08.332Z,25568
2018-05-24T05:37:08.351Z,37344
2018-05-24T05:38:08.683Z,38016
2018-05-24T05:39:08.639Z,36640
2018-05-24T05:40:08.361Z,35968
2018-05-24T05:41:08.370Z,33184
2018-05-24T05:42:08.640Z,31328
2018-05-24T05:43:08.407Z,31808
2018-05-24T05:44:08.371Z,35168
2018-05-24T05:45:08.664Z,36512
2018-05-24T05:46:08.379Z,31232
2018-05-24T05:47:08.176Z,29280
2018-05-24T05:48:08.649Z,34848
2018-05-24T05:49:08.432Z,23968
2018-05-24T05:50:08.407Z,16096
2018-05-24T05:51:08.186Z,20288
2018-05-24T05:52:08.539Z,37056
2018-05-24T05:53:08.694Z,39648
2018-05-24T05:54:08.688Z,38848
2018-05-24T05:55:08.465Z,31456
2018-05-24T05:56:08.751Z,17248
2018-05-24T05:57:08.461Z,17792
2018-05-24T05:58:08.457Z,20544
2018-05-24T05:59:08.449Z,20864
2018-05-24T06:00:08.496Z,27008
2018-05-24T06:01:08.477Z,33152
2018-05-24T06:02:08.249Z,41344
2018-05-24T06:03:08.217Z,39552
2018-05-24T06:04:08.792Z,36192
2018-05-24T06:05:08.766Z,27616
2018-05-24T06:06:08.515Z,35200
2018-05-24T06:07:08.543Z,38240
2018-05-24T06:08:08.248Z,38944
2018-05-24T06:09:08.278Z,38112
2018-05-24T06:10:08.538Z,38080
2018-05-24T06:11:08.591Z,33088
2018-05-24T06:12:08.651Z,28192
2018-05-24T06:13:08.803Z,29312
2018-05-24T06:14:08.810Z,38816
2018-05-24T06:15:08.553Z,33792
2018-05-24T06:16:08.588Z,32864
2018-05-24T06:17:08.065Z,38912
2018-05-24T06:18:08.574Z,41184
2018-05-24T06:19:08.885Z,34656
2018-05-24T06:20:08.586Z,31424
2018-05-24T06:21:08.126Z,32192
2018-05-24T06:22:08.876Z,38368
2018-05-24T06:23:08.937Z,37504
2018-05-24T06:24:08.878Z,36448
2018-05-24T06:25:08.395Z,36192
2018-05-24T06:26:08.925Z,35392
2018-05-24T06:27:08.945Z,34720
2018-05-24T06:28:08.717Z,36192
2018-05-24T06:29:08.751Z,39520
2018-05-24T06:30:08.943Z,46464
2018-05-24T06:31:08.263Z,54976
2018-05-24T06:32:08.696Z,61920
2018-05-24T06:33:08.726Z,64576
2018-05-24T06:35:08.715Z,55264
2018-05-24T06:36:09.033Z,53728
2018-05-24T06:37:08.505Z,55968
2018-05-24T06:38:08.789Z,59616
2018-05-24T06:39:09.023Z,62688
2018-05-24T06:40:09.076Z,51264
2018-05-24T06:41:08.775Z,56960
2018-05-24T06:42:08.816Z,62368
2018-05-24T06:43:08.813Z,64896
2018-05-24T06:44:08.901Z,60512
2018-05-24T06:45:08.878Z,54848
2018-05-24T06:46:09.118Z,52736
2018-05-24T06:47:09.115Z,53888
2018-05-24T06:48:08.856Z,61376
2018-05-24T06:49:08.646Z,66976
2018-05-24T06:50:08.899Z,66304
2018-05-24T06:51:08.675Z,63264
2018-05-24T06:52:08.907Z,58240
2018-05-24T06:53:08.948Z,56352
2018-05-24T06:54:09.184Z,58080
2018-05-24T06:55:08.450Z,59424
2018-05-24T06:56:08.962Z,61440
2018-05-24T06:57:09.045Z,66944
2018-05-24T06:58:09.236Z,69088
2018-05-24T06:59:08.998Z,68992
2018-05-24T07:00:09.226Z,65056
2018-05-24T07:01:09.293Z,60672
2018-05-24T07:02:09.303Z,59616
2018-05-24T07:03:09.308Z,58208
2018-05-24T07:04:08.772Z,56064
2018-05-24T07:05:08.825Z,55360
2018-05-24T07:06:09.484Z,46208
2018-05-24T07:07:09.315Z,34656
2018-05-24T07:08:09.080Z,28672
2018-05-24T07:09:09.387Z,24896
2018-05-24T07:10:09.092Z,25440
2018-05-24T07:11:09.865Z,27744
2018-05-24T07:12:09.412Z,36416
2018-05-24T07:13:09.169Z,45536
2018-05-24T07:14:09.184Z,49952
2018-05-24T07:15:09.170Z,62048
2018-05-24T07:16:09.427Z,61280
2018-05-24T07:17:09.433Z,71392
2018-05-24T07:18:09.209Z,55968
2018-05-24T07:19:08.970Z,49312
2018-05-24T07:20:09.521Z,37280
2018-05-24T07:21:09.207Z,31008
2018-05-24T07:22:09.004Z,24672
2018-05-24T07:23:09.512Z,21728
2018-05-24T07:24:09.511Z,21888
2018-05-24T07:25:09.547Z,22048
2018-05-24T07:26:09.274Z,23520
2018-05-24T07:27:09.360Z,26176
2018-05-24T07:28:09.282Z,26688
2018-05-24T07:29:09.594Z,25888
2018-05-24T07:30:09.338Z,25504
2018-05-24T07:31:09.107Z,24992
2018-05-24T07:32:09.584Z,25216
2018-05-24T07:33:09.329Z,28256
2018-05-24T07:34:09.112Z,28512
2018-05-24T07:35:09.481Z,28064
2018-05-24T07:36:09.447Z,26688
2018-05-24T07:37:09.618Z,25568
2018-05-24T07:38:09.409Z,25152
2018-05-24T07:39:09.467Z,26784
2018-05-24T07:40:09.699Z,28832
2018-05-24T07:41:09.485Z,30752
2018-05-24T07:42:09.566Z,32160
2018-05-24T07:43:09.610Z,34304
2018-05-24T07:44:09.594Z,37952
2018-05-24T07:45:10.461Z,42144
2018-05-24T07:46:09.870Z,42944
2018-05-24T07:47:09.893Z,41056
2018-05-24T07:48:09.646Z,46240
2018-05-24T07:49:09.345Z,47424
2018-05-24T07:50:09.920Z,49216
2018-05-24T07:51:09.688Z,46240
2018-05-24T07:52:09.718Z,43360
2018-05-24T07:53:09.702Z,49088
2018-05-24T07:54:09.766Z,47168
2018-05-24T07:55:09.715Z,45600
2018-05-24T07:56:09.779Z,47360
2018-05-24T07:57:09.668Z,56128
2018-05-24T07:58:10.399Z,56960
2018-05-24T07:59:10.017Z,53440
2018-05-24T08:00:09.751Z,49824
2018-05-24T08:01:10.026Z,52416
2018-05-24T08:02:09.841Z,58976
2018-05-24T08:03:10.020Z,63584
2018-05-24T08:04:10.169Z,64352
2018-05-24T08:05:10.225Z,59136
2018-05-24T08:06:10.054Z,56352
2018-05-24T08:07:09.868Z,62144
2018-05-24T08:08:09.843Z,68096
2018-05-24T08:09:10.068Z,77024
2018-05-24T08:10:10.053Z,79296
2018-05-24T08:11:10.139Z,78400
2018-05-24T08:12:09.833Z,79584
2018-05-24T08:13:10.104Z,82880
2018-05-24T08:14:10.087Z,83680
2018-05-24T08:15:09.856Z,82880
2018-05-24T08:16:09.592Z,74016
2018-05-24T08:17:09.867Z,68864
2018-05-24T08:18:09.895Z,58496
2018-05-24T08:19:10.123Z,56512
2018-05-24T08:20:10.137Z,61376
2018-05-24T08:21:09.927Z,71392
2018-05-24T08:22:10.247Z,80672
2018-05-24T08:23:10.226Z,83584
2018-05-24T08:24:10.202Z,91648
2018-05-24T08:25:09.918Z,94880
2018-05-24T08:26:09.965Z,88736
2018-05-24T08:27:10.207Z,83712
2018-05-24T08:28:09.725Z,82176
2018-05-24T08:29:10.221Z,81792
2018-05-24T08:30:10.080Z,78208
2018-05-24T08:31:10.079Z,81088
2018-05-24T08:32:10.301Z,93792
2018-05-24T08:33:10.013Z,94944
2018-05-24T08:34:10.034Z,76768
2018-05-24T08:35:10.266Z,63328
2018-05-24T08:36:09.840Z,64864
2018-05-24T08:37:10.400Z,72000
2018-05-24T08:38:10.103Z,78176
2018-05-24T08:39:10.368Z,69280
2018-05-24T08:40:09.888Z,64480
2018-05-24T08:41:10.104Z,68672
2018-05-24T08:42:10.412Z,82624
2018-05-24T08:43:10.140Z,95552
2018-05-24T08:44:09.929Z,96960
2018-05-24T08:45:10.161Z,90112
2018-05-24T08:46:10.466Z,80960
2018-05-24T08:47:10.804Z,72928
2018-05-24T08:48:10.541Z,66816
2018-05-24T08:49:10.254Z,40704
2018-05-24T08:50:10.270Z,25024
2018-05-24T08:51:10.267Z,22048
2018-05-24T08:52:10.301Z,21600
2018-05-24T08:53:10.292Z,21344
2018-05-24T08:54:10.520Z,21024
2018-05-24T08:55:10.497Z,20800
2018-05-24T08:56:10.560Z,20960
2018-05-24T08:57:10.315Z,21024
2018-05-24T08:58:10.562Z,20928
2018-05-24T08:59:10.399Z,20832
2018-05-24T09:00:10.323Z,20896
2018-05-24T09:01:10.632Z,21056
2018-05-24T09:02:10.577Z,21280
2018-05-24T09:03:10.697Z,21408
2018-05-24T09:04:10.600Z,21344
2018-05-24T09:05:10.389Z,21248
2018-05-24T09:06:10.353Z,21184
2018-05-24T09:07:10.635Z,21088
2018-05-24T09:08:10.642Z,20928
2018-05-24T09:09:10.444Z,20864
2018-05-24T09:10:10.382Z,20640
2018-05-24T09:11:10.399Z,20320
2018-05-24T09:12:10.143Z,20064
2018-05-24T09:13:10.485Z,20064
2018-05-24T09:14:10.650Z,20096
2018-05-24T09:15:10.194Z,20096
2018-05-24T09:16:10.678Z,20000
2018-05-24T09:17:10.445Z,19936
2018-05-24T09:18:10.667Z,19904
2018-05-24T09:19:10.179Z,19808
2018-05-24T09:20:11.298Z,19616
2018-05-24T09:21:10.749Z,19520
2018-05-24T09:22:10.740Z,19168
2018-05-24T09:23:10.708Z,18848
2018-05-24T09:24:10.460Z,18624
2018-05-24T09:26:10.736Z,18368
2018-05-24T09:27:10.445Z,18336
2018-05-24T09:28:14.520Z,18272
2018-05-24T09:29:10.768Z,18176
2018-05-24T09:30:10.471Z,17984
2018-05-24T09:31:10.482Z,17952
2018-05-24T09:32:10.486Z,17600
2018-05-24T09:33:10.738Z,17376
2018-05-24T09:34:10.500Z,17216
2018-05-24T09:36:11.192Z,16520
2018-05-24T09:37:10.288Z,16264
2018-05-24T09:38:10.293Z,15984
2018-05-24T09:39:10.839Z,15860
2018-05-24T09:40:10.805Z,15980
2018-05-24T09:41:10.518Z,16004
2018-05-24T09:42:10.634Z,15952
2018-05-24T09:43:10.751Z,15760
2018-05-24T09:44:10.788Z,15536
2018-05-24T09:45:23.266Z,14972
2018-05-24T09:46:10.767Z,14752
2018-05-24T09:47:10.795Z,14680
2018-05-24T09:48:10.763Z,14948
2018-05-24T09:49:10.292Z,15480
2018-05-24T09:50:10.757Z,16156
2018-05-24T09:51:10.041Z,16236
2018-05-24T09:52:10.523Z,16000
2018-05-24T09:53:10.796Z,14556
2018-05-24T09:54:10.777Z,13904
2018-05-24T09:55:23.622Z,13628
2018-05-24T09:56:10.902Z,13476
2018-05-24T09:57:10.563Z,13512
2018-05-24T09:58:10.578Z,13208
2018-05-24T09:59:10.591Z,12536
2018-05-24T10:00:10.856Z,12540
2018-05-24T10:01:10.306Z,13140
2018-05-24T10:02:10.606Z,14528
2018-05-24T10:03:10.839Z,15652
2018-05-24T10:04:10.332Z,14956
2018-05-24T10:05:10.581Z,15068
2018-05-24T10:06:10.552Z,14976
2018-05-24T10:07:11.035Z,15012
2018-05-24T10:08:10.815Z,14708
2018-05-24T10:09:10.838Z,15140
2018-05-24T10:10:10.815Z,14956
2018-05-24T10:11:10.336Z,15384
2018-05-24T10:12:10.581Z,15176
2018-05-24T10:13:10.839Z,12908
2018-05-24T10:14:10.308Z,10504
2018-05-24T10:15:23.297Z,12244
2018-05-24T10:17:10.564Z,10496
2018-05-24T10:18:10.612Z,9796
2018-05-24T10:19:10.859Z,9688
2018-05-24T10:20:10.878Z,10552
2018-05-24T10:21:10.574Z,10628
2018-05-24T10:22:10.589Z,9964
2018-05-24T10:23:10.860Z,9496
2018-05-24T10:24:10.904Z,9644
2018-05-24T10:25:10.838Z,10388
2018-05-24T10:26:10.364Z,11876
2018-05-24T10:27:10.354Z,14224
2018-05-24T10:28:10.897Z,14624
2018-05-24T10:29:10.346Z,11908
2018-05-24T10:30:10.397Z,9472
2018-05-24T10:31:10.347Z,8864
2018-05-24T10:32:10.643Z,9208
2018-05-24T10:33:10.603Z,8604
2018-05-24T10:34:10.644Z,8332
2018-05-24T10:35:10.629Z,8132
2018-05-24T10:36:10.380Z,8424
2018-05-24T10:37:10.894Z,8604
2018-05-24T10:38:10.654Z,8704
2018-05-24T10:39:10.893Z,8004
2018-05-24T10:40:11.007Z,7092
2018-05-24T10:41:10.942Z,7008
2018-05-24T10:42:10.370Z,7464
2018-05-24T10:43:10.902Z,7268
2018-05-24T10:44:10.634Z,7120
2018-05-24T10:45:10.690Z,7092
2018-05-24T10:46:10.630Z,7132
2018-05-24T10:47:10.669Z,6928
2018-05-24T10:48:10.897Z,7504
2018-05-24T10:49:11.003Z,7564
2018-05-24T10:50:10.933Z,7804
2018-05-24T10:51:11.202Z,8008
2018-05-24T10:52:10.664Z,7992
2018-05-24T10:53:10.640Z,7724
2018-05-24T10:54:10.497Z,7364
2018-05-24T10:55:10.934Z,7276
2018-05-24T10:56:11.258Z,7200
2018-05-24T10:57:10.966Z,6932
2018-05-24T10:58:10.652Z,6908
2018-05-24T10:59:10.928Z,6968
2018-05-24T11:00:10.899Z,6828
2018-05-24T11:01:10.698Z,6828
2018-05-24T11:02:10.653Z,7172
2018-05-24T11:03:10.893Z,7516
2018-05-24T11:04:10.919Z,7216
2018-05-24T11:05:10.972Z,6956
2018-05-24T11:06:10.129Z,6744
2018-05-24T11:07:10.959Z,6592
2018-05-24T11:08:10.679Z,6576
2018-05-24T11:09:10.697Z,6544
2018-05-24T11:10:10.694Z,6524
2018-05-24T11:11:10.421Z,6512
2018-05-24T11:12:10.923Z,6476
2018-05-24T11:13:11.123Z,6392
2018-05-24T11:14:10.452Z,6336
2018-05-24T11:15:11.194Z,6308
2018-05-24T11:16:10.461Z,6324
2018-05-24T11:17:10.983Z,6364
2018-05-24T11:18:10.926Z,6344
2018-05-24T11:19:10.980Z,6376
2018-05-24T11:20:10.949Z,6408
2018-05-24T11:21:10.740Z,6400
2018-05-24T11:22:10.995Z,6276
2018-05-24T11:23:10.689Z,6224
2018-05-24T11:24:10.689Z,6208
2018-05-24T11:25:11.191Z,6188
2018-05-24T11:26:10.506Z,6156
2018-05-24T11:27:10.973Z,6160
2018-05-24T11:28:10.707Z,6136
2018-05-24T11:29:10.447Z,6096
2018-05-24T11:30:10.989Z,6056
2018-05-24T11:31:10.766Z,6020
2018-05-24T11:32:11.081Z,6004
2018-05-24T11:33:11.047Z,5976
2018-05-24T11:34:10.513Z,5976
2018-05-24T11:35:10.465Z,5972
2018-05-24T11:36:11.247Z,5964
2018-05-24T11:37:11.623Z,5932
2018-05-24T11:38:11.009Z,5952
2018-05-24T11:39:10.732Z,5984
2018-05-24T11:40:10.759Z,5992
2018-05-24T11:41:10.779Z,5992
2018-05-24T11:42:10.731Z,5968
2018-05-24T11:43:11.356Z,5972
2018-05-24T11:44:11.012Z,5996
2018-05-24T11:45:10.704Z,6024
2018-05-24T11:46:11.282Z,6024
2018-05-24T11:47:10.487Z,6016
2018-05-24T11:48:10.787Z,5940
2018-05-24T11:49:10.984Z,5960
2018-05-24T11:50:11.022Z,5964
2018-05-24T11:51:10.735Z,5944
2018-05-24T11:52:11.173Z,6020
2018-05-24T11:53:10.736Z,6060
2018-05-24T11:54:11.173Z,6092
2018-05-24T11:55:11.004Z,6104
2018-05-24T11:56:10.744Z,6116
2018-05-24T11:57:11.079Z,6116
2018-05-24T11:58:10.782Z,6332
2018-05-24T11:59:11.017Z,6632
2018-05-24T12:00:10.752Z,6932
2018-05-24T12:01:10.509Z,6916
2018-05-24T12:02:11.003Z,6912
2018-05-24T12:03:11.010Z,6268
2018-05-24T12:04:10.990Z,5908
2018-05-24T12:05:11.044Z,5880
2018-05-24T12:06:10.757Z,5912
2018-05-24T12:07:11.342Z,5972
2018-05-24T12:08:11.016Z,6000
2018-05-24T12:09:10.733Z,5976
2018-05-24T12:10:11.039Z,6056
2018-05-24T12:11:11.045Z,6300
2018-05-24T12:12:10.541Z,6544
2018-05-24T12:13:10.785Z,6540
2018-05-24T12:14:10.999Z,6844
2018-05-24T12:15:10.978Z,7224
2018-05-24T12:16:11.272Z,7516
2018-05-24T12:17:11.318Z,7868
2018-05-24T12:18:11.082Z,8488
2018-05-24T12:19:10.773Z,8448
2018-05-24T12:20:11.003Z,8256
2018-05-24T12:21:11.056Z,7144
2018-05-24T12:22:11.016Z,6512
2018-05-24T12:23:10.837Z,6780
2018-05-24T12:24:10.802Z,7000
2018-05-24T12:25:11.072Z,6968
2018-05-24T12:26:11.011Z,7104
2018-05-24T12:27:10.779Z,7456
2018-05-24T12:28:11.072Z,7424
2018-05-24T12:29:10.924Z,6812
2018-05-24T12:30:11.074Z,6716
2018-05-24T12:31:10.267Z,6512
2018-05-24T12:32:10.777Z,6284
2018-05-24T12:33:10.815Z,6276
2018-05-24T12:34:10.775Z,6256
2018-05-24T12:35:10.798Z,6204
2018-05-24T12:36:10.769Z,6116
2018-05-24T12:37:11.098Z,6144
2018-05-24T12:38:10.521Z,6232
2018-05-24T12:39:10.814Z,6248
2018-05-24T12:40:10.811Z,6252
2018-05-24T12:41:10.818Z,6260
2018-05-24T12:42:11.088Z,6324
2018-05-24T12:43:10.814Z,6444
2018-05-24T12:44:11.067Z,6452
2018-05-24T12:45:11.093Z,6460
2018-05-24T12:46:10.829Z,6432
2018-05-24T12:47:10.806Z,6332
2018-05-24T12:48:10.823Z,6296
2018-05-24T12:49:11.136Z,6304
2018-05-24T12:50:11.085Z,6312
2018-05-24T12:51:10.819Z,6176
2018-05-24T12:52:11.154Z,6648
2018-05-24T12:53:10.538Z,6640
2018-05-24T12:54:11.097Z,7080
2018-05-24T12:55:11.049Z,6960
2018-05-24T12:56:11.093Z,6856
2018-05-24T12:57:11.061Z,6972
2018-05-24T12:58:11.108Z,6680
2018-05-24T12:59:10.827Z,6964
2018-05-24T13:00:10.827Z,6988
2018-05-24T13:01:10.855Z,7064
2018-05-24T13:02:10.868Z,7272
2018-05-24T13:03:10.316Z,7220
2018-05-24T13:04:11.260Z,7560
2018-05-24T13:05:11.134Z,8108
2018-05-24T13:06:10.592Z,9108
2018-05-24T13:07:11.094Z,10320
2018-05-24T13:08:11.137Z,10840
2018-05-24T13:09:11.102Z,9388
2018-05-24T13:10:10.862Z,8620
2018-05-24T13:11:11.067Z,7976
2018-05-24T13:12:11.096Z,7428
2018-05-24T13:13:11.134Z,7024
2018-05-24T13:14:10.318Z,6956
2018-05-24T13:15:10.341Z,7172
2018-05-24T13:16:11.095Z,7084
2018-05-24T13:17:11.021Z,6956
2018-05-24T13:18:10.879Z,6924
2018-05-24T13:19:11.132Z,7200
2018-05-24T13:20:11.099Z,7544
2018-05-24T13:21:10.875Z,7828
2018-05-24T13:22:10.901Z,7260
2018-05-24T13:23:10.617Z,6808
2018-05-24T13:24:10.909Z,6860
2018-05-24T13:25:10.999Z,7212
2018-05-24T13:26:10.617Z,7436
2018-05-24T13:27:11.170Z,7748